Digby, Canada
Current Conditions -  °F | °C
As of 4:00 AM on Monday 26 Jan 2015 (Local Time) from CYZX Reporting Station
Scattered Clouds Scattered Clouds  
Wind Chill: -7°   Ceiling: Unl
Heat Index: 12°   Visibility: 15mi
Dew Point:   Wind: 23mph
Humidity: 79%   Direction: 290°WNW
Pressure: 29.94"   Gusts: NA
Location:  44.6°N, 65.75°W
Report Text: CYZX 260800Z 29020KT 15SM SCT030 M11/M14 A2994 RMK SC3 WNDY HILL 31018G29KT SLP140
Loading
Personal Weather Stations






























Interactive Weather Map New forecast layout! Learn more

10-Day Weather Forecast

Advertisements
Track Severe Weather on mobile